Time;durP1;ratioP1;P1;durP2;ratioP2;P2;SDS_P1;SDS_P2;PMS_P1;PMS_P2;Temp;Humidity;BMP_temperature;BMP_pressure;BME280_temperature;BME280_humidity;BME280_pressure;Samples;Min_cycle;Max_cycle;Signal;HPM_P1;HPM_P2
2022/04/19 00:01:51;;;;;;;27.27;25.67;;;7.90;72.10;;;;;;5094537;28;20293;-75
2022/04/19 00:04:19;;;;;;;26.13;24.63;;;8.00;72.20;;;;;;5094134;28;20718;-75
2022/04/19 00:06:46;;;;;;;26.65;25.05;;;7.90;72.20;;;;;;5094338;28;20202;-75
2022/04/19 00:09:13;;;;;;;26.13;24.55;;;7.90;72.30;;;;;;5093733;28;20204;-75
2022/04/19 00:11:40;;;;;;;25.77;24.27;;;7.80;72.60;;;;;;5094188;28;20212;-75
2022/04/19 00:14:07;;;;;;;26.80;25.13;;;7.70;72.80;;;;;;5094209;28;20364;-75
2022/04/19 00:16:35;;;;;;;27.75;25.95;;;7.80;72.40;;;;;;5094139;28;20241;-75
2022/04/19 00:19:04;;;;;;;26.45;24.92;;;7.70;72.60;;;;;;5093998;28;20242;-75
2022/04/19 00:21:31;;;;;;;27.55;25.95;;;7.60;73.20;;;;;;5093763;28;20241;-75
2022/04/19 00:23:58;;;;;;;26.50;24.75;;;7.60;73.40;;;;;;5093783;28;20220;-75
2022/04/19 00:26:25;;;;;;;27.13;25.63;;;7.60;73.30;;;;;;5093885;28;20203;-74
2022/04/19 00:28:52;;;;;;;27.35;25.48;;;7.60;73.30;;;;;;5093840;28;20549;-75
2022/04/19 00:31:19;;;;;;;26.98;25.40;;;7.60;73.00;;;;;;5093370;28;20201;-75
2022/04/19 00:33:47;;;;;;;27.20;25.50;;;7.60;73.00;;;;;;5093594;28;20217;-75
2022/04/19 00:36:19;;;;;;;26.05;24.55;;;7.60;73.00;;;;;;5093655;28;20633;-75
2022/04/19 00:38:47;;;;;;;26.38;24.77;;;7.50;73.20;;;;;;5093444;28;20219;-75
2022/04/19 00:41:14;;;;;;;27.88;26.17;;;7.40;73.40;;;;;;5093086;28;20240;-75
2022/04/19 00:43:41;;;;;;;26.42;24.92;;;7.30;73.80;;;;;;5093443;28;20226;-75
2022/04/19 00:46:08;;;;;;;26.85;25.25;;;7.30;74.10;;;;;;5092832;28;20291;-75
2022/04/19 00:48:35;;;;;;;26.55;25.05;;;7.30;73.90;;;;;;5093456;28;20282;-75
2022/04/19 00:51:01;;;;;;;27.05;25.35;;;7.30;73.80;;;;;;5092806;28;20207;-75
2022/04/19 00:53:30;;;;;;;26.73;25.13;;;7.20;74.10;;;;;;5093177;28;20703;-75
2022/04/19 00:55:58;;;;;;;26.40;24.90;;;7.20;74.20;;;;;;5093437;28;20205;-75
2022/04/19 00:58:25;;;;;;;26.75;24.98;;;7.20;74.20;;;;;;5093061;28;20222;-75
2022/04/19 01:00:52;;;;;;;26.77;25.08;;;7.20;74.40;;;;;;5092776;28;20245;-75
2022/04/19 01:03:21;;;;;;;25.83;24.33;;;7.10;74.60;;;;;;5093019;28;20226;-75
2022/04/19 01:05:51;;;;;;;26.50;24.35;;;7.10;74.60;;;;;;5092960;28;20200;-75
2022/04/19 01:08:18;;;;;;;26.73;24.95;;;7.00;74.60;;;;;;5092763;28;20559;-74
2022/04/19 01:10:47;;;;;;;26.63;25.13;;;7.10;74.40;;;;;;5092665;28;20658;-75
2022/04/19 01:13:17;;;;;;;26.25;24.65;;;7.00;74.60;;;;;;5092994;28;20217;-75
2022/04/19 01:15:49;;;;;;;25.67;24.27;;;6.90;74.90;;;;;;5093105;28;20205;-75
2022/04/19 01:18:20;;;;;;;25.63;24.17;;;6.80;75.40;;;;;;5092533;28;20550;-75
2022/04/19 01:20:48;;;;;;;26.98;25.10;;;6.80;75.60;;;;;;5092485;28;20197;-75
2022/04/19 01:23:19;;;;;;;27.63;25.92;;;6.80;75.40;;;;;;5092742;28;20225;-75
2022/04/19 01:25:46;;;;;;;26.52;25.02;;;6.80;75.60;;;;;;5092876;28;20559;-75
2022/04/19 01:28:13;;;;;;;27.05;25.55;;;6.80;75.60;;;;;;5092633;28;20776;-75
2022/04/19 01:30:43;;;;;;;26.40;24.90;;;6.70;75.70;;;;;;5091962;28;20226;-75
2022/04/19 01:33:11;;;;;;;27.15;25.60;;;6.70;75.70;;;;;;5092810;28;20260;-75
2022/04/19 01:35:38;;;;;;;27.25;25.05;;;6.80;75.40;;;;;;5092682;28;20199;-75
2022/04/19 01:38:05;;;;;;;26.45;24.90;;;6.70;75.40;;;;;;5092636;28;20206;-75
2022/04/19 01:40:36;;;;;;;25.55;24.00;;;6.70;75.50;;;;;;5091893;28;20240;-75
2022/04/19 01:43:05;;;;;;;25.60;24.15;;;6.60;75.80;;;;;;5091256;28;20212;-75
2022/04/19 01:45:33;;;;;;;26.45;24.75;;;6.60;76.10;;;;;;5092310;28;20202;-74
2022/04/19 01:48:01;;;;;;;27.20;25.42;;;6.50;76.30;;;;;;5092470;28;20238;-75
2022/04/19 01:50:29;;;;;;;26.70;24.77;;;6.50;76.60;;;;;;5091632;28;20742;-75
2022/04/19 01:52:57;;;;;;;26.20;24.67;;;6.50;76.60;;;;;;5092391;28;20275;-75
2022/04/19 01:55:27;;;;;;;25.65;24.13;;;6.40;76.70;;;;;;5092263;28;20658;-75
2022/04/19 01:57:57;;;;;;;27.38;25.88;;;6.40;76.70;;;;;;5092304;28;20200;-75
2022/04/19 02:00:25;;;;;;;27.33;25.73;;;6.40;76.70;;;;;;5091580;28;20582;-75
2022/04/19 02:02:55;;;;;;;26.33;24.75;;;6.40;76.70;;;;;;5092276;28;20218;-75
2022/04/19 02:05:22;;;;;;;26.40;24.80;;;6.30;76.80;;;;;;5092252;28;20206;-74
2022/04/19 02:07:49;;;;;;;25.15;23.75;;;6.30;76.70;;;;;;5092486;28;20199;-75
2022/04/19 02:10:18;;;;;;;25.98;24.27;;;6.40;76.60;;;;;;5091469;28;20288;-75
2022/04/19 02:12:45;;;;;;;26.20;24.63;;;6.30;76.60;;;;;;5091999;28;20713;-74
2022/04/19 02:15:17;;;;;;;25.88;24.33;;;6.30;76.70;;;;;;5092104;28;20276;-75
2022/04/19 02:17:45;;;;;;;26.63;25.02;;;6.30;76.70;;;;;;5091658;28;20225;-75
2022/04/19 02:20:14;;;;;;;25.90;24.50;;;6.20;76.80;;;;;;5091494;28;20221;-75
2022/04/19 02:22:41;;;;;;;26.05;24.55;;;6.30;76.60;;;;;;5091877;28;20198;-75
2022/04/19 02:25:11;;;;;;;26.05;24.55;;;6.30;76.40;;;;;;5091841;28;20197;-75
2022/04/19 02:27:40;;;;;;;26.13;24.52;;;6.40;76.20;;;;;;5091881;28;20250;-72
2022/04/19 02:30:13;;;;;;;26.10;24.50;;;6.30;76.20;;;;;;5091355;28;20619;-75
2022/04/19 02:32:42;;;;;;;26.25;24.60;;;6.30;76.60;;;;;;5091875;28;20197;-75
2022/04/19 02:35:10;;;;;;;26.85;25.30;;;6.10;77.00;;;;;;5091947;28;20206;-74
2022/04/19 02:37:37;;;;;;;26.35;24.85;;;6.10;77.20;;;;;;5091813;28;20213;-75
2022/04/19 02:40:05;;;;;;;27.13;25.52;;;6.00;77.60;;;;;;5091357;28;20268;-74
2022/04/19 02:42:32;;;;;;;25.92;24.35;;;6.00;77.50;;;;;;5091779;28;20683;-74
2022/04/19 02:45:01;;;;;;;26.10;24.60;;;6.00;77.20;;;;;;5091886;28;20197;-75
2022/04/19 02:47:28;;;;;;;25.92;24.42;;;6.00;77.40;;;;;;5091687;28;20254;-74
2022/04/19 02:49:56;;;;;;;25.77;24.27;;;6.10;77.20;;;;;;5091278;28;20192;-74
2022/04/19 02:52:23;;;;;;;25.67;24.17;;;6.10;77.20;;;;;;5091592;28;20288;-74
2022/04/19 02:54:50;;;;;;;25.80;24.40;;;6.00;77.50;;;;;;5091892;28;20203;-74
2022/04/19 02:57:18;;;;;;;26.67;25.02;;;5.90;77.60;;;;;;5091767;28;20589;-74
2022/04/19 02:59:45;;;;;;;26.35;24.75;;;6.00;77.20;;;;;;5091155;28;20226;-74
2022/04/19 03:02:12;;;;;;;26.45;24.85;;;6.00;77.00;;;;;;5091638;28;20698;-75
2022/04/19 03:04:39;;;;;;;26.77;24.92;;;5.90;77.40;;;;;;5091529;28;20224;-74
2022/04/19 03:07:07;;;;;;;24.85;23.35;;;5.90;77.70;;;;;;5091673;28;20262;-75
2022/04/19 03:09:34;;;;;;;25.60;23.90;;;5.90;78.00;;;;;;5091797;28;20216;-75
2022/04/19 03:12:01;;;;;;;28.50;26.90;;;5.90;77.70;;;;;;5095326;28;20288;-74
2022/04/19 03:14:28;;;;;;;25.88;24.27;;;5.90;77.80;;;;;;5095340;28;20217;-75
2022/04/19 03:16:55;;;;;;;26.60;24.85;;;5.90;77.90;;;;;;5094915;28;20207;-74
2022/04/19 03:19:24;;;;;;;26.45;24.85;;;5.90;77.80;;;;;;5094476;28;20230;-75
2022/04/19 03:21:52;;;;;;;25.90;24.30;;;5.90;77.80;;;;;;5095029;28;20198;-75
2022/04/19 03:29:49;;;;;;;26.40;24.90;;;5.80;78.10;;;;;;5094610;28;20246;-74
2022/04/19 03:32:19;;;;;;;28.83;27.02;;;5.80;77.40;;;;;;5095112;28;20197;-74
2022/04/19 03:34:46;;;;;;;26.65;25.00;;;5.80;77.50;;;;;;5094804;28;20711;-74
2022/04/19 03:37:13;;;;;;;27.58;25.85;;;5.80;77.70;;;;;;5094906;28;20691;-74
2022/04/19 03:39:41;;;;;;;25.40;23.90;;;5.70;78.30;;;;;;5094169;28;20221;-74
2022/04/19 03:42:08;;;;;;;26.83;25.23;;;5.60;78.50;;;;;;5094667;28;20207;-74
2022/04/19 03:44:35;;;;;;;28.55;26.67;;;5.60;78.70;;;;;;5094656;28;20332;-74
2022/04/19 03:47:09;;;;;;;26.17;24.58;;;5.60;78.60;;;;;;5094487;28;20274;-74
2022/04/19 03:49:36;;;;;;;25.90;24.30;;;5.50;78.70;;;;;;5094029;28;20212;-74
2022/04/19 03:52:03;;;;;;;25.58;24.05;;;5.50;78.60;;;;;;5094629;28;20205;-74
2022/04/19 03:54:31;;;;;;;27.95;26.25;;;5.60;78.50;;;;;;5094403;28;20304;-74
2022/04/19 03:56:59;;;;;;;27.30;25.50;;;5.50;79.00;;;;;;5094536;28;20243;-74
2022/04/19 03:59:26;;;;;;;26.40;24.70;;;5.40;79.30;;;;;;5093724;28;20217;-74
2022/04/19 04:01:53;;;;;;;29.50;27.50;;;5.40;79.40;;;;;;5094571;28;20206;-74
2022/04/19 04:04:21;;;;;;;26.48;24.83;;;5.40;79.30;;;;;;5094192;28;20246;-74
2022/04/19 04:06:48;;;;;;;27.17;25.30;;;5.40;79.30;;;;;;5094367;28;20639;-74
2022/04/19 04:09:15;;;;;;;26.20;24.50;;;5.40;79.30;;;;;;5093285;28;20666;-75
2022/04/19 04:11:41;;;;;;;26.38;24.95;;;5.40;79.10;;;;;;5094265;28;20197;-74
2022/04/19 04:14:10;;;;;;;25.88;24.33;;;5.40;79.30;;;;;;5102612;22;20215;-74
2022/04/19 04:16:37;;;;;;;26.05;24.55;;;5.30;79.50;;;;;;5092717;28;20239;-74
2022/04/19 04:19:04;;;;;;;27.95;26.08;;;5.20;79.70;;;;;;5093785;28;20656;-74
2022/04/19 04:21:30;;;;;;;26.25;24.65;;;5.30;79.50;;;;;;5092408;28;20205;-74
2022/04/19 04:23:57;;;;;;;26.90;25.17;;;5.30;79.50;;;;;;5094105;28;20221;-74
2022/04/19 04:26:24;;;;;;;26.00;24.38;;;5.30;79.70;;;;;;5093891;28;20194;-74
2022/04/19 04:28:51;;;;;;;26.38;24.70;;;5.30;79.90;;;;;;5093706;28;20243;-74
2022/04/19 04:31:19;;;;;;;27.30;25.55;;;5.30;80.00;;;;;;5093238;28;20368;-74
2022/04/19 04:33:46;;;;;;;28.20;26.50;;;5.30;79.80;;;;;;5093852;28;20300;-74
2022/04/19 04:36:13;;;;;;;27.30;25.60;;;5.40;79.60;;;;;;5093661;28;20201;-74
2022/04/19 04:38:40;;;;;;;30.40;28.80;;;5.30;79.80;;;;;;5093710;28;20200;-74
2022/04/19 04:41:07;;;;;;;27.58;25.88;;;5.30;80.00;;;;;;5093125;28;20225;-74
2022/04/19 04:43:34;;;;;;;26.48;24.73;;;5.30;79.90;;;;;;5093569;28;20256;-74
2022/04/19 04:51:30;;;;;;;26.98;25.20;;;5.60;78.70;;;;;;5093149;28;20226;-74
2022/04/19 04:53:57;;;;;;;29.42;27.83;;;5.60;78.30;;;;;;5093161;28;20253;-75
2022/04/19 04:56:27;;;;;;;27.50;25.80;;;5.50;78.60;;;;;;5093356;28;20237;-74
2022/04/19 04:58:54;;;;;;;28.23;26.42;;;5.40;79.00;;;;;;5093251;28;20212;-74
2022/04/19 05:01:21;;;;;;;29.42;27.35;;;5.40;79.20;;;;;;5092690;28;20213;-74
2022/04/19 05:03:49;;;;;;;28.52;26.52;;;5.50;79.20;;;;;;5093072;28;20303;-74
2022/04/19 05:06:16;;;;;;;27.10;25.50;;;5.70;78.60;;;;;;5093183;28;20197;-75
2022/04/19 05:08:43;;;;;;;28.90;26.80;;;5.70;78.30;;;;;;5093165;28;20198;-74
2022/04/19 05:11:10;;;;;;;27.95;26.15;;;5.70;78.40;;;;;;5092826;28;20193;-75
2022/04/19 05:13:37;;;;;;;27.50;25.70;;;5.80;78.20;;;;;;5093078;28;20218;-74
2022/04/19 05:16:04;;;;;;;27.92;26.00;;;5.90;78.00;;;;;;5092966;28;20215;-75
2022/04/19 05:18:32;;;;;;;27.55;25.95;;;5.90;78.00;;;;;;5092418;28;20197;-75
2022/04/19 05:21:00;;;;;;;29.23;27.05;;;6.10;77.70;;;;;;5092221;28;20711;-74
2022/04/19 05:23:27;;;;;;;26.92;25.23;;;6.10;77.30;;;;;;5092704;28;20214;-74
2022/04/19 05:25:54;;;;;;;26.58;24.65;;;6.20;77.10;;;;;;5092808;28;20194;-74
2022/04/19 05:28:21;;;;;;;27.67;25.67;;;6.40;76.60;;;;;;5092682;28;20289;-75
2022/04/19 05:30:48;;;;;;;26.88;25.17;;;6.50;75.90;;;;;;5092331;28;20280;-75
2022/04/19 05:33:15;;;;;;;26.83;25.17;;;6.60;75.40;;;;;;5092317;28;20305;-75
2022/04/19 05:35:42;;;;;;;27.88;25.88;;;6.80;74.90;;;;;;5092486;28;20294;-75
2022/04/19 05:38:10;;;;;;;26.50;24.80;;;6.90;74.50;;;;;;5092599;28;20283;-74
2022/04/19 05:40:40;;;;;;;28.27;26.27;;;7.00;74.20;;;;;;5092170;28;20226;-75
2022/04/19 05:43:07;;;;;;;28.27;26.48;;;7.10;74.00;;;;;;5092399;28;20243;-75
2022/04/19 05:45:34;;;;;;;27.17;25.48;;;7.20;73.50;;;;;;5092584;28;20204;-75
2022/04/19 05:48:01;;;;;;;27.58;25.77;;;7.30;73.10;;;;;;5092250;28;20289;-75
2022/04/19 05:50:28;;;;;;;27.77;25.92;;;7.40;72.80;;;;;;5091876;28;20191;-75
2022/04/19 05:52:55;;;;;;;27.63;25.98;;;7.50;72.50;;;;;;5092273;28;20222;-75
2022/04/19 05:55:23;;;;;;;28.65;26.85;;;7.60;72.10;;;;;;5092485;28;20731;-75
2022/04/19 05:57:50;;;;;;;28.13;26.33;;;7.80;71.70;;;;;;5092224;28;20286;-75
2022/04/19 06:00:19;;;;;;;29.95;27.40;;;8.00;71.50;;;;;;5091700;28;20302;-75
2022/04/19 06:05:30;;;;;;;30.20;28.10;;;8.20;70.10;;;;;;5092478;28;20548;-74
2022/04/19 06:07:57;;;;;;;28.52;26.73;;;8.40;69.40;;;;;;5092181;28;20293;-74
2022/04/19 06:10:27;;;;;;;29.00;27.08;;;8.60;69.00;;;;;;5091663;28;20294;-75
2022/04/19 06:12:53;;;;;;;30.50;28.65;;;8.70;68.70;;;;;;5092184;28;20302;-74
2022/04/19 06:15:21;;;;;;;28.95;27.15;;;8.80;68.40;;;;;;5091861;28;20242;-75
2022/04/19 06:17:48;;;;;;;28.77;26.85;;;8.80;68.30;;;;;;5091704;28;20204;-75
2022/04/19 06:20:15;;;;;;;28.98;26.95;;;9.10;68.10;;;;;;5091544;28;20309;-75
2022/04/19 06:22:44;;;;;;;29.95;27.80;;;9.10;67.80;;;;;;5091963;28;20657;-75
2022/04/19 06:25:11;;;;;;;28.15;26.13;;;9.30;67.60;;;;;;5092009;28;20210;-75
2022/04/19 06:27:40;;;;;;;31.08;28.98;;;9.40;67.40;;;;;;5092167;28;20212;-75
2022/04/19 06:30:08;;;;;;;30.05;27.92;;;9.50;67.20;;;;;;5091202;28;20225;-75
2022/04/19 06:32:35;;;;;;;29.70;27.77;;;9.70;66.90;;;;;;5091986;28;20196;-75
2022/04/19 06:35:02;;;;;;;29.60;27.55;;;9.80;66.60;;;;;;5091882;28;20272;-75
2022/04/19 06:37:30;;;;;;;29.50;27.58;;;10.00;66.20;;;;;;5092097;28;20255;-75
2022/04/19 06:40:00;;;;;;;31.05;28.95;;;10.10;65.40;;;;;;5091130;28;20196;-75
2022/04/19 06:42:27;;;;;;;29.77;27.47;;;10.40;64.90;;;;;;5091851;28;20287;-75
2022/04/19 06:44:55;;;;;;;29.30;27.40;;;10.50;64.30;;;;;;5093448;28;20464;-75
2022/04/19 06:47:24;;;;;;;28.57;26.70;;;10.70;63.90;;;;;;5095791;28;20196;-75
2022/04/19 06:49:52;;;;;;;28.27;26.40;;;10.80;63.30;;;;;;5095222;28;20460;-75
2022/04/19 06:52:19;;;;;;;30.80;28.67;;;11.00;62.70;;;;;;5095704;28;20450;-75
2022/04/19 06:54:46;;;;;;;30.00;27.60;;;11.10;61.40;;;;;;5095480;28;21048;-75
2022/04/19 06:57:13;;;;;;;29.00;26.87;;;11.10;61.20;;;;;;5095840;28;20464;-75
2022/04/19 06:59:40;;;;;;;28.30;26.60;;;11.30;61.00;;;;;;5094938;28;20481;-75
2022/04/19 07:02:08;;;;;;;28.37;26.50;;;11.40;60.80;;;;;;5095572;28;20512;-75
2022/04/19 07:04:35;;;;;;;29.43;27.73;;;11.50;60.50;;;;;;5095348;28;20563;-75
2022/04/19 07:07:03;;;;;;;29.13;27.33;;;11.60;60.40;;;;;;5095359;28;20449;-75
2022/04/19 07:09:30;;;;;;;28.43;26.60;;;11.70;60.10;;;;;;5094756;28;20532;-75
2022/04/19 07:11:57;;;;;;;27.87;26.07;;;11.80;59.90;;;;;;5095497;28;20942;-75
2022/04/19 07:14:24;;;;;;;28.07;26.30;;;11.80;59.70;;;;;;5095153;28;20580;-75
2022/04/19 07:16:52;;;;;;;29.33;27.40;;;11.80;59.80;;;;;;5095049;28;20453;-75
2022/04/19 07:19:20;;;;;;;29.20;27.40;;;11.90;60.00;;;;;;5094614;28;20503;-75
2022/04/19 07:27:15;;;;;;;30.03;27.97;;;12.20;65.20;;;;;;5095345;28;20798;-75
2022/04/19 07:29:42;;;;;;;31.10;28.80;;;12.20;60.20;;;;;;5094569;28;20809;-75
2022/04/19 07:32:09;;;;;;;31.00;28.87;;;12.30;60.00;;;;;;5094868;28;20457;-75
2022/04/19 07:34:37;;;;;;;31.03;28.83;;;12.40;65.30;;;;;;5094721;28;20481;-75
2022/04/19 07:37:05;;;;;;;30.63;28.50;;;12.50;60.70;;;;;;5094950;28;20458;-75
2022/04/19 07:39:32;;;;;;;32.20;30.00;;;12.60;59.10;;;;;;5094169;28;20450;-75
2022/04/19 07:42:00;;;;;;;30.50;28.17;;;12.70;58.50;;;;;;5094739;28;20539;-75
2022/04/19 07:44:29;;;;;;;30.03;28.13;;;12.70;57.80;;;;;;5094645;28;20559;-75
2022/04/19 07:46:56;;;;;;;31.10;28.80;;;12.80;57.90;;;;;;5094642;28;20453;-75
2022/04/19 07:49:23;;;;;;;30.23;28.30;;;13.00;57.00;;;;;;5094097;28;20469;-75
2022/04/19 07:51:52;;;;;;;30.47;28.33;;;13.10;56.20;;;;;;5094497;28;20484;-75
2022/04/19 07:54:19;;;;;;;29.97;27.60;;;13.20;56.40;;;;;;5094427;28;20476;-75
2022/04/19 07:56:46;;;;;;;31.67;29.47;;;13.30;56.10;;;;;;5094252;28;20457;-75
2022/04/19 07:59:12;;;;;;;31.60;29.50;;;13.50;55.50;;;;;;5093928;28;20486;-75
2022/04/19 08:01:39;;;;;;;32.10;30.00;;;13.60;55.20;;;;;;5094392;28;20473;-75
2022/04/19 08:04:06;;;;;;;30.93;28.50;;;13.60;54.90;;;;;;5094535;28;20472;-75
2022/04/19 08:06:33;;;;;;;30.90;28.53;;;13.70;54.70;;;;;;5094175;28;20488;-75
2022/04/19 08:09:01;;;;;;;31.50;29.20;;;13.80;54.20;;;;;;5094197;28;20951;-73
2022/04/19 08:11:28;;;;;;;32.17;29.83;;;13.80;53.50;;;;;;5093931;28;20814;-74
2022/04/19 08:13:55;;;;;;;29.50;27.57;;;13.80;53.60;;;;;;5094056;28;20477;-75
2022/04/19 08:16:22;;;;;;;31.17;28.93;;;13.80;53.30;;;;;;5093614;28;20465;-75
2022/04/19 08:18:49;;;;;;;29.70;27.63;;;13.90;52.40;;;;;;5093796;28;20465;-75
2022/04/19 08:21:17;;;;;;;27.53;25.80;;;13.90;52.20;;;;;;5093574;28;20557;-75
2022/04/19 08:23:43;;;;;;;30.27;28.37;;;14.00;51.40;;;;;;5093623;28;20488;-75
2022/04/19 08:26:12;;;;;;;28.83;27.03;;;14.00;50.70;;;;;;5094022;28;20544;-75
2022/04/19 08:28:39;;;;;;;30.10;27.90;;;14.10;50.40;;;;;;5093585;28;20800;-75
2022/04/19 08:31:05;;;;;;;28.47;26.53;;;14.20;50.40;;;;;;5093496;28;20547;-75
2022/04/19 08:33:32;;;;;;;30.47;28.37;;;14.20;50.10;;;;;;5093781;28;20985;-75
2022/04/19 08:36:00;;;;;;;29.10;27.17;;;14.40;49.80;;;;;;5093818;28;20489;-75
2022/04/19 08:38:28;;;;;;;28.63;26.83;;;14.50;49.20;;;;;;5093688;28;20934;-75
2022/04/19 08:40:55;;;;;;;27.40;25.50;;;14.70;48.60;;;;;;5092972;28;20481;-75
2022/04/19 08:43:23;;;;;;;33.50;31.60;;;14.80;48.70;;;;;;5093486;28;21096;-75
2022/04/19 08:45:50;;;;;;;32.17;30.27;;;14.80;48.30;;;;;;5093477;28;20450;-75
2022/04/19 08:48:17;;;;;;;29.77;27.77;;;14.90;47.90;;;;;;5093207;28;20511;-75
2022/04/19 08:50:49;;;;;;;27.73;25.63;;;15.00;47.90;;;;;;5092822;28;20453;-75
2022/04/19 08:58:46;;;;;;;29.80;27.80;;;15.10;45.80;;;;;;5093375;28;20979;-75
2022/04/19 09:01:13;;;;;;;28.90;27.10;;;15.10;45.90;;;;;;5092850;28;20933;-75
2022/04/19 09:03:41;;;;;;;27.87;26.07;;;15.20;46.00;;;;;;5093139;28;20470;-75
2022/04/19 09:06:08;;;;;;;27.70;26.00;;;15.30;46.40;;;;;;5093195;28;20453;-75
2022/04/19 09:08:35;;;;;;;27.10;25.30;;;15.30;45.20;;;;;;5092521;28;20456;-75
2022/04/19 09:11:07;;;;;;;29.47;27.47;;;15.40;45.30;;;;;;5092430;28;20536;-75
2022/04/19 09:13:34;;;;;;;28.70;26.77;;;15.40;45.80;;;;;;5092834;28;20470;-75
2022/04/19 09:16:06;;;;;;;27.97;26.17;;;15.40;46.30;;;;;;5092948;28;20540;-75
2022/04/19 09:18:36;;;;;;;28.40;26.70;;;15.50;45.70;;;;;;5092438;28;20458;-75
2022/04/19 09:21:05;;;;;;;29.50;27.70;;;15.60;46.30;;;;;;5092318;28;20822;-75
2022/04/19 09:23:33;;;;;;;30.43;28.37;;;15.50;46.80;;;;;;5092792;28;20477;-75
2022/04/19 09:26:02;;;;;;;43.93;31.50;;;15.60;46.80;;;;;;5092892;28;20541;-75
2022/04/19 09:28:30;;;;;;;28.70;26.90;;;15.60;47.00;;;;;;5092689;28;21004;-75
2022/04/19 09:30:59;;;;;;;27.40;25.53;;;15.60;46.20;;;;;;5092106;28;20446;-75
2022/04/19 09:33:28;;;;;;;29.43;27.53;;;15.70;44.90;;;;;;5092652;28;20480;-75
2022/04/19 09:35:58;;;;;;;29.03;27.13;;;15.90;44.90;;;;;;5093251;28;20503;-75
2022/04/19 09:38:36;;;;;;;28.23;26.23;;;15.80;44.70;;;;;;5092971;28;20445;-75
2022/04/19 09:41:04;;;;;;;28.97;26.97;;;15.70;44.50;;;;;;5092247;28;20996;-75
2022/04/19 09:43:32;;;;;;;28.70;26.80;;;15.80;44.40;;;;;;5093384;28;20481;-75
2022/04/19 09:46:02;;;;;;;28.40;26.60;;;15.90;44.30;;;;;;5093720;28;20453;-75
2022/04/19 09:48:33;;;;;;;27.60;26.00;;;15.90;44.40;;;;;;5094126;28;20949;-75
2022/04/19 09:51:03;;;;;;;26.00;24.60;;;16.00;44.20;;;;;;5093249;28;20791;-75
2022/04/19 09:53:31;;;;;;;27.63;25.83;;;16.10;44.20;;;;;;5093481;28;20466;-75
2022/04/19 09:55:59;;;;;;;26.77;25.17;;;16.20;43.90;;;;;;5093244;28;20492;-75
2022/04/19 09:58:30;;;;;;;29.30;27.40;;;16.30;44.00;;;;;;5093698;28;20454;-75
2022/04/19 10:00:57;;;;;;;28.20;25.80;;;16.40;43.80;;;;;;5092912;28;20453;-75
2022/04/19 10:08:59;;;;;;;27.60;25.87;;;16.40;40.30;;;;;;5092131;28;20478;-75
2022/04/19 10:11:29;;;;;;;26.20;24.60;;;16.10;40.30;;;;;;5091871;28;20950;-75
2022/04/19 10:13:57;;;;;;;27.00;25.40;;;16.20;41.70;;;;;;5092199;28;21114;-75
2022/04/19 10:16:24;;;;;;;26.37;24.53;;;16.20;41.90;;;;;;5091978;28;20547;-75
2022/04/19 10:18:51;;;;;;;26.80;25.17;;;16.20;41.30;;;;;;5091921;28;20593;-75
2022/04/19 10:21:23;;;;;;;28.33;26.80;;;16.20;41.00;;;;;;5095705;28;20487;-75
2022/04/19 10:23:51;;;;;;;26.00;24.30;;;16.00;41.50;;;;;;5096241;28;20552;-75
2022/04/19 10:26:20;;;;;;;26.40;24.90;;;16.20;41.10;;;;;;5096435;28;20544;-75
2022/04/19 10:28:49;;;;;;;26.27;24.50;;;16.30;41.00;;;;;;5096206;28;21007;-75
2022/04/19 10:31:30;;;;;;;25.60;24.10;;;16.30;40.90;;;;;;5095754;28;20458;-75
2022/04/19 10:34:02;;;;;;;26.00;24.50;;;16.30;41.10;;;;;;5096082;28;20842;-75
2022/04/19 10:36:38;;;;;;;27.63;25.87;;;16.50;39.70;;;;;;5096198;28;20457;-75
2022/04/19 10:39:22;;;;;;;26.07;24.50;;;16.40;39.40;;;;;;5095909;28;20524;-75
2022/04/19 10:41:53;;;;;;;26.53;24.93;;;16.60;39.70;;;;;;5095858;28;20477;-75
2022/04/19 10:44:32;;;;;;;27.20;25.50;;;16.60;39.70;;;;;;5095856;28;20560;-75
2022/04/19 10:47:20;;;;;;;27.23;25.63;;;16.80;39.40;;;;;;5095926;28;20545;-75
2022/04/19 10:49:52;;;;;;;26.30;24.57;;;16.70;39.80;;;;;;5092171;28;20449;-75
2022/04/19 10:52:58;;;;;;;26.50;24.63;;;16.60;39.70;;;;;;5095599;28;20445;-75
2022/04/19 10:55:30;;;;;;;26.70;25.10;;;16.70;39.30;;;;;;5089319;28;20460;-75
2022/04/19 10:58:21;;;;;;;26.87;25.17;;;16.50;40.00;;;;;;5095773;28;20543;-75
2022/04/19 11:00:54;;;;;;;29.63;27.80;;;16.50;40.20;;;;;;5095081;28;20544;-75
2022/04/19 11:03:39;;;;;;;27.20;25.60;;;16.50;40.60;;;;;;5095572;28;20497;-75
2022/04/19 11:06:09;;;;;;;26.50;24.90;;;16.50;40.40;;;;;;5095741;28;20453;-75
2022/04/19 11:08:38;;;;;;;27.17;25.47;;;16.60;39.80;;;;;;5095537;28;20808;-75
2022/04/19 11:11:23;;;;;;;26.33;24.73;;;16.60;39.70;;;;;;5094828;28;20453;-75
2022/04/19 11:14:19;;;;;;;26.57;24.97;;;16.50;40.10;;;;;;5095270;28;20512;-75
2022/04/19 11:16:48;;;;;;;28.93;26.77;;;16.70;40.10;;;;;;5095004;28;20450;-75
2022/04/19 11:19:17;;;;;;;27.97;26.07;;;16.70;40.80;;;;;;5094738;28;20857;-75
2022/04/19 11:21:49;;;;;;;26.80;25.10;;;16.80;40.90;;;;;;5094892;28;20522;-75
2022/04/19 11:24:50;;;;;;;27.67;25.87;;;16.70;41.30;;;;;;5095342;28;20504;-75
2022/04/19 11:27:20;;;;;;;27.40;25.70;;;16.80;41.30;;;;;;5094980;28;20449;-75
2022/04/19 11:29:48;;;;;;;27.20;25.47;;;17.00;40.30;;;;;;5094214;28;20480;-75
2022/04/19 11:32:21;;;;;;;27.83;26.03;;;16.90;40.40;;;;;;5094910;28;20445;-75
2022/04/19 11:34:58;;;;;;;27.17;25.43;;;16.80;39.90;;;;;;5095062;28;20480;-75
2022/04/19 11:37:25;;;;;;;27.50;25.80;;;16.60;40.40;;;;;;5095043;28;20454;-75
2022/04/19 11:48:10;;;;;;;28.50;26.70;;;17.00;38.40;;;;;;5094703;28;20556;-75
2022/04/19 11:50:37;;;;;;;28.23;26.53;;;17.10;39.40;;;;;;5094304;28;20461;-75
2022/04/19 11:53:04;;;;;;;28.37;26.47;;;17.20;39.60;;;;;;5094576;28;20466;-75
2022/04/19 11:55:31;;;;;;;28.30;26.50;;;17.30;39.40;;;;;;5094814;28;20481;-75
2022/04/19 11:58:06;;;;;;;27.77;26.07;;;17.30;39.80;;;;;;5094438;28;20458;-75
2022/04/19 12:00:33;;;;;;;26.80;25.30;;;17.30;39.50;;;;;;5094108;28;20480;-75
2022/04/19 12:03:02;;;;;;;26.20;24.70;;;17.20;39.00;;;;;;5094200;28;20482;-75
2022/04/19 12:05:30;;;;;;;30.37;28.50;;;17.20;39.30;;;;;;5094458;28;20456;-75
2022/04/19 12:07:57;;;;;;;29.17;27.47;;;17.30;39.50;;;;;;5094212;28;20450;-75
2022/04/19 12:10:25;;;;;;;28.23;26.30;;;17.40;39.40;;;;;;5093778;28;20446;-75
2022/04/19 12:12:52;;;;;;;27.33;25.73;;;17.50;39.10;;;;;;5094328;28;20548;-75
2022/04/19 12:15:42;;;;;;;28.90;26.97;;;17.60;38.30;;;;;;5094125;28;20472;-75
2022/04/19 12:18:10;;;;;;;27.97;26.07;;;17.50;38.70;;;;;;5093923;28;20458;-75
2022/04/19 12:20:43;;;;;;;29.27;27.23;;;17.60;38.70;;;;;;5093577;28;20947;-75
2022/04/19 12:23:18;;;;;;;27.27;25.60;;;17.70;38.70;;;;;;5093814;28;20482;-75
2022/04/19 12:25:59;;;;;;;27.63;25.93;;;17.70;38.60;;;;;;5094036;28;20456;-75
2022/04/19 12:28:35;;;;;;;27.50;25.90;;;17.80;38.60;;;;;;5093908;28;20457;-75
2022/04/19 12:31:04;;;;;;;30.83;28.97;;;17.70;37.90;;;;;;5093498;28;20453;-73
2022/04/19 12:33:31;;;;;;;29.47;27.67;;;17.90;37.80;;;;;;5093762;28;20474;-73
2022/04/19 12:35:58;;;;;;;28.20;26.60;;;18.00;37.80;;;;;;5093704;28;20548;-73
2022/04/19 12:38:31;;;;;;;27.50;25.80;;;18.00;38.30;;;;;;5093730;28;20453;-75
2022/04/19 12:40:58;;;;;;;29.03;27.13;;;18.00;38.40;;;;;;5093224;28;20466;-75
2022/04/19 12:43:43;;;;;;;30.57;28.57;;;18.00;38.10;;;;;;5092832;28;20481;-75
2022/04/19 12:46:14;;;;;;;29.23;27.33;;;17.90;38.30;;;;;;5093552;28;20461;-75
2022/04/19 12:48:42;;;;;;;28.50;26.77;;;18.10;38.10;;;;;;5093543;28;20552;-75
2022/04/19 12:51:09;;;;;;;29.87;27.77;;;18.00;38.10;;;;;;5092921;28;20456;-75
2022/04/19 12:53:40;;;;;;;27.43;25.73;;;17.60;38.90;;;;;;5093604;28;20553;-75
2022/04/19 12:56:37;;;;;;;29.53;27.57;;;17.70;39.10;;;;;;5093443;28;20477;-75
2022/04/19 12:59:04;;;;;;;30.70;28.63;;;17.60;39.00;;;;;;5093192;28;20481;-73
2022/04/19 13:01:32;;;;;;;30.27;28.37;;;17.50;39.10;;;;;;5093053;28;20491;-73
2022/04/19 13:03:59;;;;;;;27.87;26.17;;;17.70;39.00;;;;;;5093211;28;20565;-73
2022/04/19 13:14:39;;;;;;;28.17;26.27;;;18.20;38.40;;;;;;5093036;28;20464;-73
2022/04/19 13:17:07;;;;;;;28.70;26.80;;;18.10;38.50;;;;;;5092887;28;20548;-73
2022/04/19 13:19:35;;;;;;;30.63;28.87;;;18.20;38.70;;;;;;5092440;28;20454;-73
2022/04/19 13:22:02;;;;;;;28.40;26.60;;;18.20;37.80;;;;;;5092847;28;20532;-73
2022/04/19 13:24:29;;;;;;;27.80;26.10;;;18.00;38.10;;;;;;5092743;28;20484;-74
2022/04/19 13:26:56;;;;;;;27.93;26.23;;;18.00;38.10;;;;;;5093004;28;20457;-75